WEATHER/FLIGHT PLANNING

Hattiesburg Radar

 

 

 

 

Weather Links

Flight Planning Links

 

METAR

2019/01/20 05:41 KHBG 200541Z AUTO 32011KT 10SM SCT021 BKN028 OVC038 04/01 A3002 RMK AO2 RAE02 P0000 T00390006 $

TAF

2019/01/19 18:24 TAF KHBG 191721Z 1918/2018 29008KT 6SM -RA BR FEW013 BKN029 BKN070 FM192000 26016G23KT P6SM VCSH BKN025 FM192200 29018G27KT P6SM BKN025 FM201400 32011G18KT P6SM SKC